sensor_id;sensor_type;location;lat;lon;timestamp;P1;durP1;ratioP1;P2;durP2;ratioP2
24813;SDS011;12904;50.088;11.414;2023-04-06T00:01:33;9.57;;;7.72;;
24813;SDS011;12904;50.088;11.414;2023-04-06T00:03:59;9.02;;;7.18;;
24813;SDS011;12904;50.088;11.414;2023-04-06T00:06:25;10.38;;;6.40;;
24813;SDS011;12904;50.088;11.414;2023-04-06T00:08:51;10.82;;;6.93;;
24813;SDS011;12904;50.088;11.414;2023-04-06T00:11:17;8.30;;;7.50;;
24813;SDS011;12904;50.088;11.414;2023-04-06T00:13:43;11.30;;;7.25;;
24813;SDS011;12904;50.088;11.414;2023-04-06T00:16:08;10.75;;;8.10;;
24813;SDS011;12904;50.088;11.414;2023-04-06T00:18:34;8.27;;;7.40;;
24813;SDS011;12904;50.088;11.414;2023-04-06T00:21:00;10.55;;;8.00;;
24813;SDS011;12904;50.088;11.414;2023-04-06T00:23:26;8.15;;;7.35;;
24813;SDS011;12904;50.088;11.414;2023-04-06T00:25:51;7.97;;;7.18;;
24813;SDS011;12904;50.088;11.414;2023-04-06T00:28:17;10.48;;;8.23;;
24813;SDS011;12904;50.088;11.414;2023-04-06T00:30:45;12.50;;;7.55;;
24813;SDS011;12904;50.088;11.414;2023-04-06T00:33:10;11.63;;;8.68;;
24813;SDS011;12904;50.088;11.414;2023-04-06T00:35:36;9.57;;;8.55;;
24813;SDS011;12904;50.088;11.414;2023-04-06T00:38:03;8.38;;;7.57;;
24813;SDS011;12904;50.088;11.414;2023-04-06T00:40:29;9.05;;;8.00;;
24813;SDS011;12904;50.088;11.414;2023-04-06T00:42:56;8.65;;;6.95;;
24813;SDS011;12904;50.088;11.414;2023-04-06T00:45:21;9.43;;;7.90;;
24813;SDS011;12904;50.088;11.414;2023-04-06T00:47:47;9.45;;;7.72;;
24813;SDS011;12904;50.088;11.414;2023-04-06T00:50:12;9.48;;;8.52;;
24813;SDS011;12904;50.088;11.414;2023-04-06T00:52:38;10.70;;;7.78;;
24813;SDS011;12904;50.088;11.414;2023-04-06T00:55:04;9.52;;;8.63;;
24813;SDS011;12904;50.088;11.414;2023-04-06T00:57:30;11.30;;;8.75;;
24813;SDS011;12904;50.088;11.414;2023-04-06T00:59:56;15.70;;;9.32;;
24813;SDS011;12904;50.088;11.414;2023-04-06T01:02:23;12.35;;;9.30;;
24813;SDS011;12904;50.088;11.414;2023-04-06T01:04:51;10.55;;;8.98;;
24813;SDS011;12904;50.088;11.414;2023-04-06T01:07:17;10.57;;;8.32;;
24813;SDS011;12904;50.088;11.414;2023-04-06T01:09:43;13.32;;;8.55;;
24813;SDS011;12904;50.088;11.414;2023-04-06T01:12:08;9.82;;;8.93;;
24813;SDS011;12904;50.088;11.414;2023-04-06T01:14:34;9.65;;;8.25;;
24813;SDS011;12904;50.088;11.414;2023-04-06T01:17:00;9.07;;;8.23;;
24813;SDS011;12904;50.088;11.414;2023-04-06T01:19:26;10.48;;;9.38;;
24813;SDS011;12904;50.088;11.414;2023-04-06T01:21:52;10.43;;;7.55;;
24813;SDS011;12904;50.088;11.414;2023-04-06T01:24:18;12.93;;;8.27;;
24813;SDS011;12904;50.088;11.414;2023-04-06T01:26:44;10.52;;;9.52;;
24813;SDS011;12904;50.088;11.414;2023-04-06T01:29:10;10.90;;;8.93;;
24813;SDS011;12904;50.088;11.414;2023-04-06T01:31:37;12.20;;;10.30;;
24813;SDS011;12904;50.088;11.414;2023-04-06T01:34:03;10.82;;;9.32;;
24813;SDS011;12904;50.088;11.414;2023-04-06T01:36:29;10.10;;;9.13;;
24813;SDS011;12904;50.088;11.414;2023-04-06T01:38:55;10.13;;;8.93;;
24813;SDS011;12904;50.088;11.414;2023-04-06T01:41:21;56.15;;;23.70;;
24813;SDS011;12904;50.088;11.414;2023-04-06T01:43:47;27.50;;;16.60;;
24813;SDS011;12904;50.088;11.414;2023-04-06T01:46:14;33.42;;;19.98;;
24813;SDS011;12904;50.088;11.414;2023-04-06T01:48:39;28.75;;;18.80;;
24813;SDS011;12904;50.088;11.414;2023-04-06T01:51:05;14.57;;;13.07;;
24813;SDS011;12904;50.088;11.414;2023-04-06T01:53:31;14.20;;;10.88;;
24813;SDS011;12904;50.088;11.414;2023-04-06T01:55:57;13.93;;;9.40;;
24813;SDS011;12904;50.088;11.414;2023-04-06T01:58:23;10.50;;;9.50;;
24813;SDS011;12904;50.088;11.414;2023-04-06T02:00:48;10.40;;;9.15;;
24813;SDS011;12904;50.088;11.414;2023-04-06T02:03:14;10.73;;;9.68;;
24813;SDS011;12904;50.088;11.414;2023-04-06T02:05:40;11.07;;;9.98;;
24813;SDS011;12904;50.088;11.414;2023-04-06T02:08:05;12.70;;;9.80;;
24813;SDS011;12904;50.088;11.414;2023-04-06T02:10:32;10.40;;;9.38;;
24813;SDS011;12904;50.088;11.414;2023-04-06T02:12:58;10.40;;;8.73;;
24813;SDS011;12904;50.088;11.414;2023-04-06T02:15:24;10.27;;;9.25;;
24813;SDS011;12904;50.088;11.414;2023-04-06T02:17:50;9.85;;;9.00;;
24813;SDS011;12904;50.088;11.414;2023-04-06T02:20:16;11.23;;;9.18;;
24813;SDS011;12904;50.088;11.414;2023-04-06T02:22:42;10.75;;;9.65;;
24813;SDS011;12904;50.088;11.414;2023-04-06T02:25:08;10.75;;;9.60;;
24813;SDS011;12904;50.088;11.414;2023-04-06T02:27:33;10.98;;;9.88;;
24813;SDS011;12904;50.088;11.414;2023-04-06T02:30:00;16.63;;;10.70;;
24813;SDS011;12904;50.088;11.414;2023-04-06T02:32:26;10.63;;;9.63;;
24813;SDS011;12904;50.088;11.414;2023-04-06T02:34:51;11.93;;;10.57;;
24813;SDS011;12904;50.088;11.414;2023-04-06T02:37:17;11.65;;;10.27;;
24813;SDS011;12904;50.088;11.414;2023-04-06T02:39:43;13.43;;;9.90;;
24813;SDS011;12904;50.088;11.414;2023-04-06T02:42:08;11.32;;;10.05;;
24813;SDS011;12904;50.088;11.414;2023-04-06T02:44:34;14.20;;;10.80;;
24813;SDS011;12904;50.088;11.414;2023-04-06T02:47:00;11.95;;;10.40;;
24813;SDS011;12904;50.088;11.414;2023-04-06T02:49:25;12.10;;;10.90;;
24813;SDS011;12904;50.088;11.414;2023-04-06T02:51:51;11.43;;;10.32;;
24813;SDS011;12904;50.088;11.414;2023-04-06T02:54:17;11.95;;;9.95;;
24813;SDS011;12904;50.088;11.414;2023-04-06T02:56:43;13.18;;;10.88;;
24813;SDS011;12904;50.088;11.414;2023-04-06T02:59:08;11.52;;;9.68;;
24813;SDS011;12904;50.088;11.414;2023-04-06T03:01:34;12.43;;;10.68;;
24813;SDS011;12904;50.088;11.414;2023-04-06T03:04:01;12.10;;;10.45;;
24813;SDS011;12904;50.088;11.414;2023-04-06T03:06:26;12.50;;;10.05;;
24813;SDS011;12904;50.088;11.414;2023-04-06T03:08:52;11.27;;;9.73;;
24813;SDS011;12904;50.088;11.414;2023-04-06T03:11:19;12.50;;;11.05;;
24813;SDS011;12904;50.088;11.414;2023-04-06T03:13:45;12.52;;;10.95;;
24813;SDS011;12904;50.088;11.414;2023-04-06T03:16:11;13.43;;;10.75;;
24813;SDS011;12904;50.088;11.414;2023-04-06T03:18:37;11.82;;;10.07;;
24813;SDS011;12904;50.088;11.414;2023-04-06T03:21:02;11.35;;;10.18;;
24813;SDS011;12904;50.088;11.414;2023-04-06T03:23:28;12.13;;;10.85;;
24813;SDS011;12904;50.088;11.414;2023-04-06T03:25:54;12.15;;;10.73;;
24813;SDS011;12904;50.088;11.414;2023-04-06T03:28:20;11.77;;;10.65;;
24813;SDS011;12904;50.088;11.414;2023-04-06T03:30:46;9.70;;;8.80;;
24813;SDS011;12904;50.088;11.414;2023-04-06T03:33:11;11.25;;;9.95;;
24813;SDS011;12904;50.088;11.414;2023-04-06T03:35:37;12.70;;;10.88;;
24813;SDS011;12904;50.088;11.414;2023-04-06T03:38:03;14.25;;;11.15;;
24813;SDS011;12904;50.088;11.414;2023-04-06T03:40:30;11.60;;;10.40;;
24813;SDS011;12904;50.088;11.414;2023-04-06T03:42:56;12.52;;;11.23;;
24813;SDS011;12904;50.088;11.414;2023-04-06T03:45:22;12.98;;;11.10;;
24813;SDS011;12904;50.088;11.414;2023-04-06T03:47:47;13.60;;;10.82;;
24813;SDS011;12904;50.088;11.414;2023-04-06T03:50:13;11.77;;;10.00;;
24813;SDS011;12904;50.088;11.414;2023-04-06T03:52:39;11.13;;;10.13;;
24813;SDS011;12904;50.088;11.414;2023-04-06T03:55:05;12.18;;;10.90;;
24813;SDS011;12904;50.088;11.414;2023-04-06T03:57:31;12.75;;;10.55;;
24813;SDS011;12904;50.088;11.414;2023-04-06T03:59:57;13.68;;;10.70;;
24813;SDS011;12904;50.088;11.414;2023-04-06T04:02:23;11.48;;;10.38;;
24813;SDS011;12904;50.088;11.414;2023-04-06T04:04:48;12.00;;;10.77;;
24813;SDS011;12904;50.088;11.414;2023-04-06T04:07:14;11.63;;;10.00;;
24813;SDS011;12904;50.088;11.414;2023-04-06T04:09:40;11.70;;;10.60;;
24813;SDS011;12904;50.088;11.414;2023-04-06T04:12:06;13.68;;;11.32;;
24813;SDS011;12904;50.088;11.414;2023-04-06T04:14:31;12.30;;;10.27;;
24813;SDS011;12904;50.088;11.414;2023-04-06T04:16:57;11.40;;;10.23;;
24813;SDS011;12904;50.088;11.414;2023-04-06T04:19:23;12.13;;;10.93;;
24813;SDS011;12904;50.088;11.414;2023-04-06T04:21:48;13.13;;;11.18;;
24813;SDS011;12904;50.088;11.414;2023-04-06T04:24:14;14.60;;;11.15;;
24813;SDS011;12904;50.088;11.414;2023-04-06T04:26:40;13.95;;;12.07;;
24813;SDS011;12904;50.088;11.414;2023-04-06T04:29:06;12.77;;;11.45;;
24813;SDS011;12904;50.088;11.414;2023-04-06T04:31:32;13.32;;;11.68;;
24813;SDS011;12904;50.088;11.414;2023-04-06T04:33:59;14.18;;;12.20;;
24813;SDS011;12904;50.088;11.414;2023-04-06T04:36:25;13.20;;;10.75;;
24813;SDS011;12904;50.088;11.414;2023-04-06T04:38:51;12.30;;;11.00;;
24813;SDS011;12904;50.088;11.414;2023-04-06T04:41:17;13.52;;;12.13;;
24813;SDS011;12904;50.088;11.414;2023-04-06T04:43:43;13.05;;;11.77;;
24813;SDS011;12904;50.088;11.414;2023-04-06T04:46:09;12.73;;;11.35;;
24813;SDS011;12904;50.088;11.414;2023-04-06T04:48:35;14.50;;;12.80;;
24813;SDS011;12904;50.088;11.414;2023-04-06T04:51:01;16.63;;;12.90;;
24813;SDS011;12904;50.088;11.414;2023-04-06T04:53:26;14.52;;;11.90;;
24813;SDS011;12904;50.088;11.414;2023-04-06T04:55:52;14.25;;;12.52;;
24813;SDS011;12904;50.088;11.414;2023-04-06T04:58:18;17.15;;;13.45;;
24813;SDS011;12904;50.088;11.414;2023-04-06T05:00:45;13.95;;;12.55;;
24813;SDS011;12904;50.088;11.414;2023-04-06T05:03:13;19.27;;;13.18;;
24813;SDS011;12904;50.088;11.414;2023-04-06T05:05:46;12.52;;;11.23;;
24813;SDS011;12904;50.088;11.414;2023-04-06T05:08:12;14.98;;;12.40;;
24813;SDS011;12904;50.088;11.414;2023-04-06T05:10:38;14.38;;;11.73;;
24813;SDS011;12904;50.088;11.414;2023-04-06T05:13:03;21.02;;;11.82;;
24813;SDS011;12904;50.088;11.414;2023-04-06T05:15:29;19.80;;;12.15;;
24813;SDS011;12904;50.088;11.414;2023-04-06T05:17:55;14.52;;;12.27;;
24813;SDS011;12904;50.088;11.414;2023-04-06T05:20:21;14.52;;;12.40;;
24813;SDS011;12904;50.088;11.414;2023-04-06T05:22:46;15.77;;;11.85;;
24813;SDS011;12904;50.088;11.414;2023-04-06T05:25:15;15.38;;;11.70;;
24813;SDS011;12904;50.088;11.414;2023-04-06T05:27:41;12.18;;;10.93;;
24813;SDS011;12904;50.088;11.414;2023-04-06T05:30:07;15.25;;;11.85;;
24813;SDS011;12904;50.088;11.414;2023-04-06T05:32:33;14.73;;;12.35;;
24813;SDS011;12904;50.088;11.414;2023-04-06T05:34:59;14.85;;;11.88;;
24813;SDS011;12904;50.088;11.414;2023-04-06T05:37:25;12.32;;;10.98;;
24813;SDS011;12904;50.088;11.414;2023-04-06T05:39:51;15.48;;;12.52;;
24813;SDS011;12904;50.088;11.414;2023-04-06T05:42:16;18.50;;;11.63;;
24813;SDS011;12904;50.088;11.414;2023-04-06T05:44:42;16.58;;;11.43;;
24813;SDS011;12904;50.088;11.414;2023-04-06T05:47:08;15.27;;;11.65;;
24813;SDS011;12904;50.088;11.414;2023-04-06T05:49:33;13.25;;;11.60;;
24813;SDS011;12904;50.088;11.414;2023-04-06T05:52:00;15.23;;;11.93;;
24813;SDS011;12904;50.088;11.414;2023-04-06T05:54:26;15.10;;;12.32;;
24813;SDS011;12904;50.088;11.414;2023-04-06T05:56:51;15.23;;;13.02;;
24813;SDS011;12904;50.088;11.414;2023-04-06T05:59:17;13.15;;;11.82;;
24813;SDS011;12904;50.088;11.414;2023-04-06T06:01:43;13.88;;;12.52;;
24813;SDS011;12904;50.088;11.414;2023-04-06T06:04:08;17.48;;;13.18;;
24813;SDS011;12904;50.088;11.414;2023-04-06T06:06:34;21.50;;;11.45;;
24813;SDS011;12904;50.088;11.414;2023-04-06T06:09:00;12.77;;;11.48;;
24813;SDS011;12904;50.088;11.414;2023-04-06T06:11:28;18.48;;;10.52;;
24813;SDS011;12904;50.088;11.414;2023-04-06T06:13:54;12.35;;;11.07;;
24813;SDS011;12904;50.088;11.414;2023-04-06T06:16:20;13.52;;;11.60;;
24813;SDS011;12904;50.088;11.414;2023-04-06T06:18:46;17.05;;;12.18;;
24813;SDS011;12904;50.088;11.414;2023-04-06T06:21:12;12.43;;;11.13;;
24813;SDS011;12904;50.088;11.414;2023-04-06T06:23:38;13.05;;;11.73;;
24813;SDS011;12904;50.088;11.414;2023-04-06T06:26:04;13.73;;;11.57;;
24813;SDS011;12904;50.088;11.414;2023-04-06T06:28:30;12.85;;;11.35;;
24813;SDS011;12904;50.088;11.414;2023-04-06T06:30:55;16.65;;;11.30;;
24813;SDS011;12904;50.088;11.414;2023-04-06T06:33:21;14.10;;;11.63;;
24813;SDS011;12904;50.088;11.414;2023-04-06T06:35:47;12.32;;;11.02;;
24813;SDS011;12904;50.088;11.414;2023-04-06T06:38:13;15.05;;;12.13;;
24813;SDS011;12904;50.088;11.414;2023-04-06T06:40:40;13.27;;;11.60;;
24813;SDS011;12904;50.088;11.414;2023-04-06T06:43:06;14.80;;;11.23;;
24813;SDS011;12904;50.088;11.414;2023-04-06T06:45:32;12.15;;;11.00;;
24813;SDS011;12904;50.088;11.414;2023-04-06T06:47:57;12.70;;;11.43;;
24813;SDS011;12904;50.088;11.414;2023-04-06T06:50:23;11.88;;;10.68;;
24813;SDS011;12904;50.088;11.414;2023-04-06T06:52:49;11.48;;;10.30;;
24813;SDS011;12904;50.088;11.414;2023-04-06T06:55:15;16.13;;;9.73;;
24813;SDS011;12904;50.088;11.414;2023-04-06T06:57:41;13.30;;;10.02;;
24813;SDS011;12904;50.088;11.414;2023-04-06T07:00:08;11.25;;;10.15;;
24813;SDS011;12904;50.088;11.414;2023-04-06T07:02:34;11.80;;;9.90;;
24813;SDS011;12904;50.088;11.414;2023-04-06T07:05:01;11.88;;;10.50;;
24813;SDS011;12904;50.088;11.414;2023-04-06T07:07:27;13.27;;;10.68;;
24813;SDS011;12904;50.088;11.414;2023-04-06T07:09:52;11.70;;;9.65;;
24813;SDS011;12904;50.088;11.414;2023-04-06T07:12:18;11.32;;;9.88;;
24813;SDS011;12904;50.088;11.414;2023-04-06T07:14:44;12.73;;;8.98;;
24813;SDS011;12904;50.088;11.414;2023-04-06T07:17:09;10.80;;;8.80;;
24813;SDS011;12904;50.088;11.414;2023-04-06T07:19:36;10.02;;;8.60;;
24813;SDS011;12904;50.088;11.414;2023-04-06T07:22:01;10.68;;;9.02;;
24813;SDS011;12904;50.088;11.414;2023-04-06T07:24:28;10.95;;;9.85;;
24813;SDS011;12904;50.088;11.414;2023-04-06T07:26:54;10.15;;;9.15;;
24813;SDS011;12904;50.088;11.414;2023-04-06T07:29:21;9.52;;;8.63;;
24813;SDS011;12904;50.088;11.414;2023-04-06T07:31:47;10.48;;;8.90;;
24813;SDS011;12904;50.088;11.414;2023-04-06T07:34:14;9.32;;;8.45;;
24813;SDS011;12904;50.088;11.414;2023-04-06T07:36:40;10.65;;;7.72;;
24813;SDS011;12904;50.088;11.414;2023-04-06T07:39:06;9.18;;;7.57;;
24813;SDS011;12904;50.088;11.414;2023-04-06T07:41:32;9.85;;;7.90;;
24813;SDS011;12904;50.088;11.414;2023-04-06T07:43:58;8.80;;;7.90;;
24813;SDS011;12904;50.088;11.414;2023-04-06T07:46:24;7.85;;;7.05;;
24813;SDS011;12904;50.088;11.414;2023-04-06T07:48:50;7.60;;;6.65;;
24813;SDS011;12904;50.088;11.414;2023-04-06T07:51:16;7.65;;;6.70;;
24813;SDS011;12904;50.088;11.414;2023-04-06T07:53:43;7.13;;;6.43;;
24813;SDS011;12904;50.088;11.414;2023-04-06T07:56:09;8.13;;;6.45;;
24813;SDS011;12904;50.088;11.414;2023-04-06T07:58:35;10.23;;;6.32;;
24813;SDS011;12904;50.088;11.414;2023-04-06T08:01:01;6.57;;;5.97;;
24813;SDS011;12904;50.088;11.414;2023-04-06T08:03:27;8.40;;;6.40;;
24813;SDS011;12904;50.088;11.414;2023-04-06T08:05:53;8.57;;;6.43;;
24813;SDS011;12904;50.088;11.414;2023-04-06T08:08:18;11.45;;;6.45;;
24813;SDS011;12904;50.088;11.414;2023-04-06T08:10:46;8.30;;;5.72;;
24813;SDS011;12904;50.088;11.414;2023-04-06T08:13:13;9.73;;;6.18;;
24813;SDS011;12904;50.088;11.414;2023-04-06T08:15:39;6.63;;;6.00;;
24813;SDS011;12904;50.088;11.414;2023-04-06T08:18:05;8.05;;;6.60;;
24813;SDS011;12904;50.088;11.414;2023-04-06T08:20:31;8.15;;;5.93;;
24813;SDS011;12904;50.088;11.414;2023-04-06T08:22:56;6.47;;;5.88;;
24813;SDS011;12904;50.088;11.414;2023-04-06T08:25:22;8.15;;;6.05;;
24813;SDS011;12904;50.088;11.414;2023-04-06T08:27:48;6.47;;;5.88;;
24813;SDS011;12904;50.088;11.414;2023-04-06T08:30:13;6.97;;;4.78;;
24813;SDS011;12904;50.088;11.414;2023-04-06T08:32:40;6.90;;;5.75;;
24813;SDS011;12904;50.088;11.414;2023-04-06T08:35:07;6.30;;;5.43;;
24813;SDS011;12904;50.088;11.414;2023-04-06T08:37:33;7.28;;;5.75;;
24813;SDS011;12904;50.088;11.414;2023-04-06T08:39:58;6.28;;;5.70;;
24813;SDS011;12904;50.088;11.414;2023-04-06T08:42:25;5.75;;;5.25;;
24813;SDS011;12904;50.088;11.414;2023-04-06T08:44:51;6.20;;;5.60;;
24813;SDS011;12904;50.088;11.414;2023-04-06T08:47:18;8.25;;;5.57;;
24813;SDS011;12904;50.088;11.414;2023-04-06T08:49:44;5.88;;;5.28;;
24813;SDS011;12904;50.088;11.414;2023-04-06T08:52:11;6.22;;;5.40;;
24813;SDS011;12904;50.088;11.414;2023-04-06T08:54:37;7.75;;;5.90;;
24813;SDS011;12904;50.088;11.414;2023-04-06T08:57:04;8.38;;;6.25;;
24813;SDS011;12904;50.088;11.414;2023-04-06T08:59:31;6.22;;;5.55;;
24813;SDS011;12904;50.088;11.414;2023-04-06T09:01:57;6.13;;;5.53;;
24813;SDS011;12904;50.088;11.414;2023-04-06T09:04:24;8.02;;;5.18;;
24813;SDS011;12904;50.088;11.414;2023-04-06T09:06:51;6.97;;;5.40;;
24813;SDS011;12904;50.088;11.414;2023-04-06T09:09:17;6.40;;;5.55;;
24813;SDS011;12904;50.088;11.414;2023-04-06T09:11:49;6.72;;;5.75;;
24813;SDS011;12904;50.088;11.414;2023-04-06T09:14:17;6.15;;;5.10;;
24813;SDS011;12904;50.088;11.414;2023-04-06T09:16:57;8.00;;;5.20;;
24813;SDS011;12904;50.088;11.414;2023-04-06T09:19:23;6.03;;;5.40;;
24813;SDS011;12904;50.088;11.414;2023-04-06T09:21:49;6.13;;;4.80;;
24813;SDS011;12904;50.088;11.414;2023-04-06T09:24:15;6.00;;;5.43;;
24813;SDS011;12904;50.088;11.414;2023-04-06T09:26:46;6.13;;;4.60;;
24813;SDS011;12904;50.088;11.414;2023-04-06T09:29:22;5.38;;;4.88;;
24813;SDS011;12904;50.088;11.414;2023-04-06T09:31:49;5.10;;;4.60;;
24813;SDS011;12904;50.088;11.414;2023-04-06T09:34:23;5.32;;;4.82;;
24813;SDS011;12904;50.088;11.414;2023-04-06T09:36:49;6.32;;;4.93;;
24813;SDS011;12904;50.088;11.414;2023-04-06T09:39:19;5.60;;;5.18;;
24813;SDS011;12904;50.088;11.414;2023-04-06T09:41:49;5.30;;;4.90;;
24813;SDS011;12904;50.088;11.414;2023-04-06T09:44:16;6.88;;;5.55;;
24813;SDS011;12904;50.088;11.414;2023-04-06T09:46:43;6.20;;;5.70;;
24813;SDS011;12904;50.088;11.414;2023-04-06T09:49:10;6.00;;;5.50;;
24813;SDS011;12904;50.088;11.414;2023-04-06T09:51:37;5.80;;;5.30;;
24813;SDS011;12904;50.088;11.414;2023-04-06T09:54:11;6.05;;;5.55;;
24813;SDS011;12904;50.088;11.414;2023-04-06T09:56:45;7.28;;;5.80;;
24813;SDS011;12904;50.088;11.414;2023-04-06T10:02:12;6.28;;;5.68;;
24813;SDS011;12904;50.088;11.414;2023-04-06T10:04:50;12.95;;;6.00;;
24813;SDS011;12904;50.088;11.414;2023-04-06T10:07:23;5.13;;;4.63;;
24813;SDS011;12904;50.088;11.414;2023-04-06T10:09:51;5.88;;;5.38;;
24813;SDS011;12904;50.088;11.414;2023-04-06T10:12:20;6.50;;;5.90;;
24813;SDS011;12904;50.088;11.414;2023-04-06T10:14:45;8.35;;;5.07;;
24813;SDS011;12904;50.088;11.414;2023-04-06T10:17:12;5.82;;;5.32;;
24813;SDS011;12904;50.088;11.414;2023-04-06T10:19:49;5.72;;;5.22;;
24813;SDS011;12904;50.088;11.414;2023-04-06T10:22:31;5.47;;;5.07;;
24813;SDS011;12904;50.088;11.414;2023-04-06T10:25:01;5.45;;;4.85;;
24813;SDS011;12904;50.088;11.414;2023-04-06T10:27:28;5.20;;;4.78;;
24813;SDS011;12904;50.088;11.414;2023-04-06T10:29:54;5.18;;;4.68;;
24813;SDS011;12904;50.088;11.414;2023-04-06T10:35:07;7.53;;;6.82;;
24813;SDS011;12904;50.088;11.414;2023-04-06T10:40:25;6.35;;;4.72;;
24813;SDS011;12904;50.088;11.414;2023-04-06T10:42:52;4.75;;;4.35;;
24813;SDS011;12904;50.088;11.414;2023-04-06T10:45:20;5.38;;;4.88;;
24813;SDS011;12904;50.088;11.414;2023-04-06T10:47:46;5.00;;;4.60;;
24813;SDS011;12904;50.088;11.414;2023-04-06T10:50:16;5.22;;;4.82;;
24813;SDS011;12904;50.088;11.414;2023-04-06T10:52:43;6.32;;;5.28;;
24813;SDS011;12904;50.088;11.414;2023-04-06T10:55:10;5.00;;;4.60;;
24813;SDS011;12904;50.088;11.414;2023-04-06T10:57:38;6.22;;;5.60;;
24813;SDS011;12904;50.088;11.414;2023-04-06T11:00:04;6.40;;;5.90;;
24813;SDS011;12904;50.088;11.414;2023-04-06T11:02:31;8.00;;;5.70;;
24813;SDS011;12904;50.088;11.414;2023-04-06T11:04:57;10.60;;;5.60;;
24813;SDS011;12904;50.088;11.414;2023-04-06T11:07:26;6.45;;;5.85;;
24813;SDS011;12904;50.088;11.414;2023-04-06T11:09:55;6.32;;;5.72;;
24813;SDS011;12904;50.088;11.414;2023-04-06T11:12:22;6.40;;;5.90;;
24813;SDS011;12904;50.088;11.414;2023-04-06T11:14:56;8.05;;;7.00;;
24813;SDS011;12904;50.088;11.414;2023-04-06T11:17:34;6.47;;;5.88;;
24813;SDS011;12904;50.088;11.414;2023-04-06T11:20:01;6.03;;;5.43;;
24813;SDS011;12904;50.088;11.414;2023-04-06T11:22:29;13.80;;;10.25;;
24813;SDS011;12904;50.088;11.414;2023-04-06T11:25:07;6.80;;;6.10;;
24813;SDS011;12904;50.088;11.414;2023-04-06T11:27:34;6.90;;;6.20;;
24813;SDS011;12904;50.088;11.414;2023-04-06T11:30:01;7.60;;;6.53;;
24813;SDS011;12904;50.088;11.414;2023-04-06T11:32:27;6.95;;;5.97;;
24813;SDS011;12904;50.088;11.414;2023-04-06T11:34:53;6.80;;;5.95;;
24813;SDS011;12904;50.088;11.414;2023-04-06T11:37:19;6.45;;;5.85;;
24813;SDS011;12904;50.088;11.414;2023-04-06T11:42:21;6.90;;;5.82;;
24813;SDS011;12904;50.088;11.414;2023-04-06T11:44:49;6.20;;;5.70;;
24813;SDS011;12904;50.088;11.414;2023-04-06T11:47:17;8.07;;;5.97;;
24813;SDS011;12904;50.088;11.414;2023-04-06T11:49:44;6.72;;;6.13;;
24813;SDS011;12904;50.088;11.414;2023-04-06T11:52:19;6.75;;;6.15;;
24813;SDS011;12904;50.088;11.414;2023-04-06T11:54:48;6.70;;;6.10;;
24813;SDS011;12904;50.088;11.414;2023-04-06T11:57:15;6.28;;;5.78;;
24813;SDS011;12904;50.088;11.414;2023-04-06T11:59:41;6.72;;;6.07;;
24813;SDS011;12904;50.088;11.414;2023-04-06T12:02:07;6.05;;;5.55;;
24813;SDS011;12904;50.088;11.414;2023-04-06T12:04:33;7.03;;;5.90;;
24813;SDS011;12904;50.088;11.414;2023-04-06T12:06:59;6.47;;;5.88;;
24813;SDS011;12904;50.088;11.414;2023-04-06T12:09:25;6.20;;;5.60;;
24813;SDS011;12904;50.088;11.414;2023-04-06T12:11:51;8.43;;;6.13;;
24813;SDS011;12904;50.088;11.414;2023-04-06T12:14:16;5.20;;;4.70;;
24813;SDS011;12904;50.088;11.414;2023-04-06T12:16:42;5.65;;;5.15;;
24813;SDS011;12904;50.088;11.414;2023-04-06T12:19:08;5.80;;;5.30;;
24813;SDS011;12904;50.088;11.414;2023-04-06T12:21:34;5.57;;;5.07;;
24813;SDS011;12904;50.088;11.414;2023-04-06T12:24:06;5.78;;;4.95;;
24813;SDS011;12904;50.088;11.414;2023-04-06T12:26:32;9.35;;;6.00;;
24813;SDS011;12904;50.088;11.414;2023-04-06T12:28:58;5.78;;;5.28;;
24813;SDS011;12904;50.088;11.414;2023-04-06T12:31:31;5.65;;;5.22;;
24813;SDS011;12904;50.088;11.414;2023-04-06T12:33:57;6.03;;;5.53;;
24813;SDS011;12904;50.088;11.414;2023-04-06T12:36:23;5.60;;;5.10;;
24813;SDS011;12904;50.088;11.414;2023-04-06T12:38:49;9.27;;;5.93;;
24813;SDS011;12904;50.088;11.414;2023-04-06T12:41:18;5.95;;;5.45;;
24813;SDS011;12904;50.088;11.414;2023-04-06T12:43:44;5.93;;;5.32;;
24813;SDS011;12904;50.088;11.414;2023-04-06T12:46:10;6.55;;;6.03;;
24813;SDS011;12904;50.088;11.414;2023-04-06T12:48:36;6.32;;;5.13;;
24813;SDS011;12904;50.088;11.414;2023-04-06T12:51:03;7.68;;;5.45;;
24813;SDS011;12904;50.088;11.414;2023-04-06T12:53:31;5.97;;;5.47;;
24813;SDS011;12904;50.088;11.414;2023-04-06T12:55:57;6.57;;;5.15;;
24813;SDS011;12904;50.088;11.414;2023-04-06T12:58:24;5.05;;;4.65;;
24813;SDS011;12904;50.088;11.414;2023-04-06T13:00:53;5.80;;;5.20;;
24813;SDS011;12904;50.088;11.414;2023-04-06T13:03:21;5.18;;;4.78;;
24813;SDS011;12904;50.088;11.414;2023-04-06T13:05:47;5.60;;;5.10;;
24813;SDS011;12904;50.088;11.414;2023-04-06T13:08:14;7.28;;;5.95;;
24813;SDS011;12904;50.088;11.414;2023-04-06T13:10:44;6.55;;;4.95;;
24813;SDS011;12904;50.088;11.414;2023-04-06T13:13:09;6.40;;;4.72;;
24813;SDS011;12904;50.088;11.414;2023-04-06T13:15:35;5.47;;;4.97;;
24813;SDS011;12904;50.088;11.414;2023-04-06T13:18:02;5.03;;;4.65;;
24813;SDS011;12904;50.088;11.414;2023-04-06T13:20:28;7.07;;;5.88;;
24813;SDS011;12904;50.088;11.414;2023-04-06T13:22:53;5.88;;;5.30;;
24813;SDS011;12904;50.088;11.414;2023-04-06T13:25:19;6.07;;;5.47;;
24813;SDS011;12904;50.088;11.414;2023-04-06T13:27:45;7.35;;;5.35;;
24813;SDS011;12904;50.088;11.414;2023-04-06T13:30:13;5.65;;;5.15;;
24813;SDS011;12904;50.088;11.414;2023-04-06T13:32:39;6.05;;;5.43;;
24813;SDS011;12904;50.088;11.414;2023-04-06T13:35:06;5.43;;;4.93;;
24813;SDS011;12904;50.088;11.414;2023-04-06T13:37:32;6.53;;;5.45;;
24813;SDS011;12904;50.088;11.414;2023-04-06T13:39:58;5.50;;;5.00;;
24813;SDS011;12904;50.088;11.414;2023-04-06T13:42:24;7.82;;;5.82;;
24813;SDS011;12904;50.088;11.414;2023-04-06T13:44:50;5.60;;;5.10;;
24813;SDS011;12904;50.088;11.414;2023-04-06T13:47:16;5.78;;;5.28;;
24813;SDS011;12904;50.088;11.414;2023-04-06T13:49:42;6.13;;;4.72;;
24813;SDS011;12904;50.088;11.414;2023-04-06T13:52:08;5.95;;;5.35;;
24813;SDS011;12904;50.088;11.414;2023-04-06T13:54:35;5.53;;;5.03;;
24813;SDS011;12904;50.088;11.414;2023-04-06T13:57:01;5.53;;;5.03;;
24813;SDS011;12904;50.088;11.414;2023-04-06T13:59:33;6.07;;;5.03;;
24813;SDS011;12904;50.088;11.414;2023-04-06T14:02:03;6.57;;;4.90;;
24813;SDS011;12904;50.088;11.414;2023-04-06T14:04:29;5.63;;;5.13;;
24813;SDS011;12904;50.088;11.414;2023-04-06T14:06:59;5.07;;;4.68;;
24813;SDS011;12904;50.088;11.414;2023-04-06T14:09:25;7.20;;;5.13;;
24813;SDS011;12904;50.088;11.414;2023-04-06T14:11:51;7.40;;;5.95;;
24813;SDS011;12904;50.088;11.414;2023-04-06T14:14:17;6.20;;;5.60;;
24813;SDS011;12904;50.088;11.414;2023-04-06T14:16:43;5.07;;;4.57;;
24813;SDS011;12904;50.088;11.414;2023-04-06T14:19:10;5.63;;;5.03;;
24813;SDS011;12904;50.088;11.414;2023-04-06T14:21:37;5.50;;;5.00;;
24813;SDS011;12904;50.088;11.414;2023-04-06T14:24:09;5.47;;;5.07;;
24813;SDS011;12904;50.088;11.414;2023-04-06T14:26:36;5.68;;;5.05;;
24813;SDS011;12904;50.088;11.414;2023-04-06T14:29:03;6.10;;;5.25;;
24813;SDS011;12904;50.088;11.414;2023-04-06T14:31:30;5.72;;;5.22;;